createdAt,value
2017-08-31T00:02:21.013Z,18.30
2017-08-31T00:04:48.651Z,18.20
2017-08-31T00:07:16.245Z,18.20
2017-08-31T00:09:43.840Z,18.20
2017-08-31T00:12:11.462Z,18.20
2017-08-31T00:14:39.047Z,18.20
2017-08-31T00:17:06.649Z,18.20
2017-08-31T00:19:34.267Z,18.20
2017-08-31T00:22:01.902Z,18.20
2017-08-31T00:24:29.486Z,18.20
2017-08-31T00:26:57.104Z,18.20
2017-08-31T00:29:24.679Z,18.20
2017-08-31T00:31:52.240Z,18.20
2017-08-31T00:34:19.857Z,18.20
2017-08-31T00:36:47.433Z,18.10
2017-08-31T00:39:15.029Z,18.10
2017-08-31T00:41:42.642Z,18.20
2017-08-31T00:44:10.245Z,18.10
2017-08-31T00:46:37.838Z,18.00
2017-08-31T00:49:05.469Z,17.90
2017-08-31T00:51:33.046Z,17.90
2017-08-31T00:54:00.605Z,17.90
2017-08-31T00:56:28.235Z,17.90
2017-08-31T00:58:55.820Z,17.90
2017-08-31T01:01:23.379Z,17.90
2017-08-31T01:03:50.988Z,17.70
2017-08-31T01:06:19.327Z,17.50
2017-08-31T01:08:46.912Z,17.60
2017-08-31T01:11:14.521Z,17.50
2017-08-31T01:13:42.080Z,17.40
2017-08-31T01:16:09.670Z,17.30
2017-08-31T01:18:37.278Z,17.20
2017-08-31T01:21:04.867Z,17.20
2017-08-31T01:23:32.480Z,17.20
2017-08-31T01:26:00.106Z,17.20
2017-08-31T01:28:27.693Z,17.10
2017-08-31T01:30:55.331Z,17.10
2017-08-31T01:33:22.954Z,17.00
2017-08-31T01:35:50.549Z,16.90
2017-08-31T01:38:18.186Z,16.80
2017-08-31T01:40:45.804Z,16.70
2017-08-31T01:43:13.433Z,16.50
2017-08-31T01:45:41.069Z,16.40
2017-08-31T01:48:08.665Z,16.40
2017-08-31T01:50:36.271Z,16.40
2017-08-31T01:53:03.851Z,16.40
2017-08-31T01:55:31.471Z,16.30
2017-08-31T01:57:59.126Z,16.20
2017-08-31T02:00:26.751Z,16.20
2017-08-31T02:02:54.362Z,16.20
2017-08-31T02:05:21.939Z,16.10
2017-08-31T02:07:49.527Z,16.10
2017-08-31T02:10:17.113Z,16.00
2017-08-31T02:12:44.677Z,15.90
2017-08-31T02:15:12.267Z,16.00
2017-08-31T02:17:39.909Z,15.90
2017-08-31T02:20:07.506Z,15.90
2017-08-31T02:22:35.098Z,15.90
2017-08-31T02:25:02.715Z,15.90
2017-08-31T02:27:30.296Z,15.80
2017-08-31T02:29:57.902Z,15.80
2017-08-31T02:32:25.525Z,15.70
2017-08-31T02:34:53.103Z,15.70
2017-08-31T02:37:20.692Z,15.80
2017-08-31T02:39:48.317Z,15.90
2017-08-31T02:42:15.961Z,15.90
2017-08-31T02:44:43.526Z,15.90
2017-08-31T02:47:11.114Z,15.90
2017-08-31T02:49:38.713Z,15.90
2017-08-31T02:52:06.310Z,15.90
2017-08-31T02:54:33.910Z,15.90
2017-08-31T02:57:01.511Z,15.90
2017-08-31T02:59:29.077Z,15.90
2017-08-31T03:01:56.701Z,15.90
2017-08-31T03:04:24.299Z,15.80
2017-08-31T03:06:51.904Z,15.80
2017-08-31T03:09:19.472Z,15.70
2017-08-31T03:11:47.072Z,15.70
2017-08-31T03:14:14.670Z,15.60
2017-08-31T03:16:42.242Z,15.60
2017-08-31T03:19:09.845Z,15.60
2017-08-31T03:21:37.447Z,15.60
2017-08-31T03:24:05.025Z,15.60
2017-08-31T03:26:32.614Z,15.60
2017-08-31T03:29:00.213Z,15.70
2017-08-31T03:31:27.820Z,15.80
2017-08-31T03:33:55.373Z,15.70
2017-08-31T03:36:22.966Z,15.70
2017-08-31T03:38:50.571Z,15.60
2017-08-31T03:41:18.155Z,15.60
2017-08-31T03:43:45.750Z,15.60
2017-08-31T03:46:13.325Z,15.70
2017-08-31T03:48:40.926Z,15.60
2017-08-31T03:51:08.510Z,15.50
2017-08-31T03:53:36.111Z,15.50
2017-08-31T03:56:03.722Z,15.50
2017-08-31T03:58:31.302Z,15.50
2017-08-31T04:00:58.874Z,15.40
2017-08-31T04:03:26.457Z,15.40
2017-08-31T04:05:54.012Z,15.40
2017-08-31T04:08:21.639Z,15.30
2017-08-31T04:10:49.219Z,15.30
2017-08-31T04:13:16.818Z,15.10
2017-08-31T04:15:44.426Z,15.10
2017-08-31T04:18:12.097Z,15.10
2017-08-31T04:20:39.709Z,15.10
2017-08-31T04:23:07.292Z,15.10
2017-08-31T04:25:34.877Z,15.00
2017-08-31T04:28:02.471Z,14.90
2017-08-31T04:30:30.054Z,14.80
2017-08-31T04:32:57.653Z,14.70
2017-08-31T04:35:25.212Z,14.70
2017-08-31T04:37:52.900Z,14.80
2017-08-31T04:40:20.506Z,14.90
2017-08-31T04:42:48.876Z,14.80
2017-08-31T04:45:16.859Z,14.80
2017-08-31T04:47:44.430Z,14.90
2017-08-31T04:50:12.806Z,14.80
2017-08-31T04:52:40.471Z,14.80
2017-08-31T04:55:08.801Z,14.80
2017-08-31T04:57:36.385Z,14.80
2017-08-31T05:00:03.999Z,14.90
2017-08-31T05:02:31.602Z,14.90
2017-08-31T05:04:59.202Z,14.90
2017-08-31T05:07:26.801Z,14.90
2017-08-31T05:09:54.433Z,15.00
2017-08-31T05:12:22.063Z,14.90
2017-08-31T05:14:49.640Z,14.90
2017-08-31T05:17:17.247Z,14.90
2017-08-31T05:19:44.850Z,15.00
2017-08-31T05:22:12.508Z,15.00
2017-08-31T05:24:40.113Z,14.90
2017-08-31T05:27:07.690Z,14.90
2017-08-31T05:29:35.303Z,14.90
2017-08-31T05:32:02.932Z,14.90
2017-08-31T05:34:30.559Z,14.90
2017-08-31T05:36:58.148Z,14.80
2017-08-31T05:39:25.742Z,14.70
2017-08-31T05:41:53.346Z,14.70
2017-08-31T05:44:20.942Z,14.70
2017-08-31T05:46:48.528Z,14.60
2017-08-31T05:49:16.120Z,14.60
2017-08-31T05:51:43.711Z,14.60
2017-08-31T05:54:11.339Z,14.70
2017-08-31T05:56:38.898Z,14.60
2017-08-31T05:59:06.700Z,14.60
2017-08-31T06:01:34.314Z,14.60
2017-08-31T06:04:01.884Z,14.60
2017-08-31T06:06:30.450Z,14.60
2017-08-31T06:08:59.056Z,14.60
2017-08-31T06:11:28.859Z,14.70
2017-08-31T06:13:56.446Z,14.70
2017-08-31T06:16:24.024Z,14.70
2017-08-31T06:18:53.056Z,14.70
2017-08-31T06:21:20.628Z,14.70
2017-08-31T06:23:49.225Z,14.70
2017-08-31T06:26:16.802Z,14.70
2017-08-31T06:28:45.570Z,14.70
2017-08-31T06:31:13.255Z,14.60
2017-08-31T06:33:41.942Z,14.60
2017-08-31T06:36:09.591Z,14.60
2017-08-31T06:38:37.923Z,14.70
2017-08-31T06:41:05.492Z,14.70
2017-08-31T06:43:33.077Z,14.70
2017-08-31T06:46:01.428Z,14.70
2017-08-31T06:48:29.041Z,14.70
2017-08-31T06:50:57.619Z,14.70
2017-08-31T06:53:25.200Z,14.70
2017-08-31T06:55:52.795Z,14.70
2017-08-31T06:58:21.449Z,14.80
2017-08-31T07:00:49.052Z,14.80
2017-08-31T07:03:16.636Z,14.80
2017-08-31T07:05:44.219Z,14.90
2017-08-31T07:08:11.866Z,15.00
2017-08-31T07:10:39.460Z,15.10
2017-08-31T07:13:08.288Z,15.10
2017-08-31T07:15:36.732Z,15.20
2017-08-31T07:18:04.323Z,15.20
2017-08-31T07:20:31.933Z,15.30
2017-08-31T07:22:59.510Z,15.20
2017-08-31T07:25:27.118Z,15.20
2017-08-31T07:27:55.502Z,15.10
2017-08-31T07:30:23.108Z,15.10
2017-08-31T07:32:50.702Z,15.20
2017-08-31T07:35:18.294Z,15.20
2017-08-31T07:37:46.689Z,15.40
2017-08-31T07:40:14.266Z,15.40
2017-08-31T07:42:41.829Z,15.40
2017-08-31T07:45:09.440Z,15.50
2017-08-31T07:47:37.016Z,15.50
2017-08-31T07:50:04.612Z,15.40
2017-08-31T07:52:32.216Z,15.40
2017-08-31T07:54:59.817Z,15.50
2017-08-31T07:57:27.376Z,15.50
2017-08-31T07:59:54.968Z,15.50
2017-08-31T08:02:22.567Z,15.50
2017-08-31T08:04:50.164Z,15.50
2017-08-31T08:07:17.809Z,15.50
2017-08-31T08:09:45.407Z,15.40
2017-08-31T08:12:13.000Z,15.40
2017-08-31T08:14:40.608Z,15.40
2017-08-31T08:17:08.236Z,15.60
2017-08-31T08:19:35.940Z,15.70
2017-08-31T08:22:03.567Z,15.70
2017-08-31T08:24:31.163Z,15.70
2017-08-31T08:26:58.787Z,15.70
2017-08-31T08:29:26.751Z,15.80
2017-08-31T08:31:54.367Z,15.90
2017-08-31T08:34:21.940Z,15.80
2017-08-31T08:36:49.561Z,15.80
2017-08-31T08:39:17.229Z,15.60
2017-08-31T08:41:44.801Z,15.60
2017-08-31T08:44:12.399Z,15.70
2017-08-31T08:46:40.005Z,15.70
2017-08-31T08:49:07.598Z,15.80
2017-08-31T08:51:35.225Z,15.80
2017-08-31T08:54:02.802Z,15.80
2017-08-31T08:56:30.374Z,15.80
2017-08-31T08:58:58.818Z,15.80
2017-08-31T09:01:26.391Z,15.60
2017-08-31T09:03:53.965Z,15.50
2017-08-31T09:06:21.540Z,15.50
2017-08-31T09:08:49.096Z,15.50
2017-08-31T09:11:16.671Z,15.60
2017-08-31T09:13:44.268Z,15.60
2017-08-31T09:16:11.849Z,15.70
2017-08-31T09:18:39.428Z,15.70
2017-08-31T09:21:07.033Z,15.60
2017-08-31T09:23:34.625Z,15.60
2017-08-31T09:26:02.214Z,15.50
2017-08-31T09:28:29.811Z,15.30
2017-08-31T09:30:57.375Z,15.40
2017-08-31T09:33:24.932Z,15.30
2017-08-31T09:35:52.517Z,15.30
2017-08-31T09:38:20.110Z,15.40
2017-08-31T09:40:47.683Z,15.40
2017-08-31T09:43:15.272Z,15.40
2017-08-31T09:45:42.840Z,15.50
2017-08-31T09:48:10.431Z,15.50
2017-08-31T09:50:38.027Z,15.40
2017-08-31T09:53:05.608Z,15.30
2017-08-31T09:55:33.191Z,15.40
2017-08-31T09:58:00.804Z,15.50
2017-08-31T10:00:28.404Z,15.50
2017-08-31T10:02:55.965Z,15.40
2017-08-31T10:05:23.581Z,15.40
2017-08-31T10:07:51.157Z,15.40
2017-08-31T10:10:18.715Z,15.30
2017-08-31T10:12:46.334Z,15.40
2017-08-31T10:15:13.929Z,15.50
2017-08-31T10:17:41.519Z,15.60
2017-08-31T10:20:09.106Z,15.50
2017-08-31T10:22:36.683Z,15.50
2017-08-31T10:25:04.259Z,15.60
2017-08-31T10:27:31.867Z,15.70
2017-08-31T10:29:59.461Z,15.90
2017-08-31T10:32:27.048Z,15.90
2017-08-31T10:34:54.659Z,16.00
2017-08-31T10:37:22.222Z,16.10
2017-08-31T10:39:49.795Z,16.30
2017-08-31T10:42:17.382Z,16.40
2017-08-31T10:44:44.957Z,16.40
2017-08-31T10:47:13.282Z,16.30
2017-08-31T10:49:40.896Z,16.30
2017-08-31T10:52:08.479Z,16.40
2017-08-31T10:54:36.059Z,16.60
2017-08-31T10:57:03.655Z,16.90
2017-08-31T10:59:31.260Z,17.20
2017-08-31T11:01:58.827Z,17.50
2017-08-31T11:04:26.401Z,17.60
2017-08-31T11:06:53.965Z,17.70
2017-08-31T11:09:21.549Z,17.50
2017-08-31T11:11:49.151Z,17.20
2017-08-31T11:14:16.726Z,17.00
2017-08-31T11:16:44.313Z,17.00
2017-08-31T11:19:11.918Z,17.00
2017-08-31T11:21:39.512Z,17.00
2017-08-31T11:24:07.128Z,17.00
2017-08-31T11:26:34.724Z,17.00
2017-08-31T11:29:02.401Z,17.10
2017-08-31T11:31:30.012Z,17.30
2017-08-31T11:33:57.647Z,17.40
2017-08-31T11:36:25.305Z,17.30
2017-08-31T11:38:52.770Z,17.30
2017-08-31T11:41:21.129Z,17.70
2017-08-31T11:43:48.709Z,17.70
2017-08-31T11:46:16.375Z,18.00
2017-08-31T11:48:43.960Z,18.10
2017-08-31T11:51:11.529Z,17.80
2017-08-31T11:53:39.106Z,17.40
2017-08-31T11:56:06.670Z,17.20
2017-08-31T11:58:34.268Z,17.00
2017-08-31T12:01:01.853Z,17.20
2017-08-31T12:03:29.419Z,17.40
2017-08-31T12:05:57.020Z,17.40
2017-08-31T12:08:24.606Z,17.50
2017-08-31T12:10:52.211Z,17.50
2017-08-31T12:13:19.900Z,17.60
2017-08-31T12:15:47.485Z,17.60
2017-08-31T12:18:15.110Z,17.60
2017-08-31T12:20:42.700Z,17.50
2017-08-31T12:23:10.326Z,17.50
2017-08-31T12:25:37.921Z,17.70
2017-08-31T12:28:05.499Z,17.70
2017-08-31T12:30:33.121Z,17.50
2017-08-31T12:33:00.685Z,17.40
2017-08-31T12:35:28.267Z,17.10
2017-08-31T12:37:55.856Z,17.10
2017-08-31T12:40:23.404Z,17.30
2017-08-31T12:42:50.966Z,17.50
2017-08-31T12:45:18.567Z,17.70
2017-08-31T12:47:46.121Z,18.00
2017-08-31T12:50:13.693Z,18.20
2017-08-31T12:52:41.268Z,18.50
2017-08-31T12:55:08.860Z,18.70
2017-08-31T12:57:36.447Z,19.00
2017-08-31T13:00:04.041Z,19.10
2017-08-31T13:02:31.611Z,19.00
2017-08-31T13:04:59.180Z,19.10
2017-08-31T13:07:27.626Z,19.20
2017-08-31T13:09:55.199Z,19.20
2017-08-31T13:12:22.789Z,19.10
2017-08-31T13:14:50.379Z,19.20
2017-08-31T13:17:17.940Z,19.20
2017-08-31T13:19:45.505Z,19.20
2017-08-31T13:22:13.091Z,19.10
2017-08-31T13:24:40.674Z,19.00
2017-08-31T13:27:08.255Z,18.70
2017-08-31T13:29:35.832Z,18.30
2017-08-31T13:32:03.400Z,17.90
2017-08-31T13:34:30.983Z,17.60
2017-08-31T13:36:58.572Z,17.50
2017-08-31T13:39:26.124Z,17.20
2017-08-31T13:41:53.881Z,17.20
2017-08-31T13:44:21.486Z,16.90
2017-08-31T13:46:50.121Z,16.80
2017-08-31T13:49:17.755Z,16.70
2017-08-31T13:51:45.346Z,17.00
2017-08-31T13:54:12.914Z,17.30
2017-08-31T13:56:40.485Z,17.60
2017-08-31T13:59:08.052Z,17.70
2017-08-31T14:01:35.665Z,17.70
2017-08-31T14:04:03.259Z,17.80
2017-08-31T14:06:30.814Z,17.80
2017-08-31T14:08:58.398Z,17.90
2017-08-31T14:11:25.964Z,18.00
2017-08-31T14:13:53.548Z,18.00
2017-08-31T14:16:21.866Z,18.10
2017-08-31T14:18:49.440Z,18.20
2017-08-31T14:21:17.028Z,18.30
2017-08-31T14:23:44.608Z,18.40
2017-08-31T14:26:12.193Z,18.30
2017-08-31T14:28:39.762Z,18.40
2017-08-31T14:31:07.340Z,18.30
2017-08-31T14:33:35.691Z,18.30
2017-08-31T14:36:03.244Z,18.30
2017-08-31T14:38:30.867Z,18.10
2017-08-31T14:40:58.527Z,18.00
2017-08-31T14:43:26.097Z,18.00
2017-08-31T14:45:53.679Z,18.00
2017-08-31T14:48:21.244Z,18.00
2017-08-31T14:50:48.864Z,18.00
2017-08-31T14:53:16.437Z,17.90
2017-08-31T14:55:44.004Z,17.80
2017-08-31T14:58:11.599Z,17.70
2017-08-31T15:00:39.236Z,17.80
2017-08-31T15:03:06.852Z,17.80
2017-08-31T15:05:34.418Z,17.90
2017-08-31T15:08:01.990Z,17.90
2017-08-31T15:10:29.676Z,18.00
2017-08-31T15:12:57.257Z,18.00
2017-08-31T15:15:27.981Z,18.00
2017-08-31T15:17:55.565Z,18.10
2017-08-31T15:20:23.179Z,18.20
2017-08-31T15:22:50.753Z,18.20
2017-08-31T15:25:18.337Z,18.10
2017-08-31T15:27:45.936Z,18.10
2017-08-31T15:30:13.507Z,18.10
2017-08-31T15:32:41.061Z,18.20
2017-08-31T15:35:08.655Z,18.10
2017-08-31T15:37:36.214Z,18.20
2017-08-31T15:40:03.801Z,18.20
2017-08-31T15:42:31.354Z,18.30
2017-08-31T15:44:58.922Z,18.40
2017-08-31T15:47:26.502Z,18.40
2017-08-31T15:49:54.252Z,18.40
2017-08-31T15:52:21.867Z,18.30
2017-08-31T15:54:49.461Z,18.20
2017-08-31T15:57:17.037Z,18.20
2017-08-31T15:59:44.622Z,18.30
2017-08-31T16:02:12.177Z,18.30
2017-08-31T16:04:39.827Z,18.40
2017-08-31T16:07:07.418Z,18.30
2017-08-31T16:09:35.013Z,18.30
2017-08-31T16:12:02.622Z,18.20
2017-08-31T16:14:30.225Z,18.20
2017-08-31T16:16:57.832Z,18.10
2017-08-31T16:19:25.417Z,18.10
2017-08-31T16:21:52.973Z,17.90
2017-08-31T16:24:20.577Z,17.80
2017-08-31T16:26:48.155Z,17.70
2017-08-31T16:29:15.742Z,17.70
2017-08-31T16:31:43.317Z,17.60
2017-08-31T16:34:10.901Z,17.60
2017-08-31T16:36:38.506Z,17.50
2017-08-31T16:39:06.083Z,17.50
2017-08-31T16:41:33.686Z,17.50
2017-08-31T16:44:01.258Z,17.50
2017-08-31T16:46:28.836Z,17.50
2017-08-31T16:48:56.458Z,17.50
2017-08-31T16:51:24.016Z,17.40
2017-08-31T16:53:51.619Z,17.30
2017-08-31T16:56:19.198Z,17.30
2017-08-31T16:58:46.775Z,17.30
2017-08-31T17:01:14.358Z,17.30
2017-08-31T17:03:41.923Z,17.30
2017-08-31T17:06:10.101Z,17.20
2017-08-31T17:08:37.649Z,17.20
2017-08-31T17:11:05.201Z,17.20
2017-08-31T17:13:32.772Z,17.10
2017-08-31T17:16:00.343Z,17.10
2017-08-31T17:18:27.974Z,17.10
2017-08-31T17:20:56.295Z,17.00
2017-08-31T17:23:23.891Z,16.90
2017-08-31T17:25:51.515Z,16.90
2017-08-31T17:28:19.084Z,16.80
2017-08-31T17:30:46.694Z,16.70
2017-08-31T17:33:14.285Z,16.60
2017-08-31T17:35:41.874Z,16.60
2017-08-31T17:38:09.547Z,16.60
2017-08-31T17:40:37.301Z,16.60
2017-08-31T17:43:04.908Z,16.50
2017-08-31T17:45:32.616Z,16.40
2017-08-31T17:48:00.246Z,16.40
2017-08-31T17:50:27.869Z,16.30
2017-08-31T17:52:55.461Z,16.20
2017-08-31T17:55:23.136Z,16.10
2017-08-31T17:57:50.733Z,16.00
2017-08-31T18:00:18.419Z,15.90
2017-08-31T18:02:46.037Z,15.70
2017-08-31T18:05:13.612Z,15.60
2017-08-31T18:07:41.226Z,15.60
2017-08-31T18:10:08.807Z,15.50
2017-08-31T18:12:37.130Z,15.30
2017-08-31T18:15:04.745Z,15.20
2017-08-31T18:17:32.325Z,15.10
2017-08-31T18:19:59.916Z,15.00
2017-08-31T18:22:27.505Z,14.90
2017-08-31T18:24:55.082Z,14.80
2017-08-31T18:27:22.683Z,14.70
2017-08-31T18:29:50.255Z,14.60
2017-08-31T18:32:17.851Z,14.50
2017-08-31T18:34:45.439Z,14.50
2017-08-31T18:37:13.004Z,14.40
2017-08-31T18:39:40.616Z,14.40
2017-08-31T18:42:08.226Z,14.30
2017-08-31T18:44:36.620Z,14.20
2017-08-31T18:47:04.221Z,14.20
2017-08-31T18:49:31.779Z,14.20
2017-08-31T18:51:59.384Z,14.20
2017-08-31T18:54:26.959Z,14.20
2017-08-31T18:56:54.563Z,14.10
2017-08-31T18:59:22.141Z,14.10
2017-08-31T19:01:49.736Z,14.00
2017-08-31T19:04:17.372Z,13.90
2017-08-31T19:06:44.944Z,13.80
2017-08-31T19:09:12.555Z,13.80
2017-08-31T19:11:40.125Z,13.70
2017-08-31T19:14:07.703Z,13.70
2017-08-31T19:16:35.312Z,13.70
2017-08-31T19:19:02.891Z,13.60
2017-08-31T19:21:30.523Z,13.60
2017-08-31T19:23:58.136Z,13.60
2017-08-31T19:26:25.741Z,13.60
2017-08-31T19:28:53.361Z,13.50
2017-08-31T19:31:20.944Z,13.60
2017-08-31T19:33:48.525Z,13.60
2017-08-31T19:36:16.135Z,13.50
2017-08-31T19:38:43.724Z,13.50
2017-08-31T19:41:11.326Z,13.50
2017-08-31T19:43:38.942Z,13.40
2017-08-31T19:46:06.518Z,13.30
2017-08-31T19:48:34.111Z,13.30
2017-08-31T19:51:01.788Z,13.20
2017-08-31T19:53:29.362Z,13.10
2017-08-31T19:55:56.947Z,13.10
2017-08-31T19:58:24.562Z,13.00
2017-08-31T20:00:52.158Z,13.00
2017-08-31T20:03:19.751Z,12.90
2017-08-31T20:05:47.361Z,12.90
2017-08-31T20:08:14.946Z,12.90
2017-08-31T20:10:42.541Z,12.90
2017-08-31T20:13:10.175Z,12.80
2017-08-31T20:15:37.763Z,12.80
2017-08-31T20:18:05.361Z,12.80
2017-08-31T20:20:32.983Z,12.90
2017-08-31T20:23:00.549Z,12.90
2017-08-31T20:25:28.142Z,12.80
2017-08-31T20:27:55.767Z,12.80
2017-08-31T20:30:23.348Z,12.80
2017-08-31T20:32:50.914Z,12.70
2017-08-31T20:35:18.551Z,12.70
2017-08-31T20:37:46.125Z,12.70
2017-08-31T20:40:13.702Z,12.70
2017-08-31T20:42:41.325Z,12.60
2017-08-31T20:45:08.928Z,12.70
2017-08-31T20:47:36.508Z,12.50
2017-08-31T20:50:04.123Z,12.50
2017-08-31T20:52:31.731Z,12.50
2017-08-31T20:54:59.303Z,12.40
2017-08-31T20:57:26.928Z,12.40
2017-08-31T20:59:54.526Z,12.40
2017-08-31T21:02:22.093Z,12.30
2017-08-31T21:04:49.685Z,12.30
2017-08-31T21:07:17.294Z,12.30
2017-08-31T21:09:44.890Z,12.30
2017-08-31T21:12:12.506Z,12.20
2017-08-31T21:14:40.102Z,12.20
2017-08-31T21:17:07.733Z,12.10
2017-08-31T21:19:35.312Z,12.10
2017-08-31T21:22:02.894Z,12.10
2017-08-31T21:24:30.488Z,12.10
2017-08-31T21:26:58.100Z,12.10
2017-08-31T21:29:25.729Z,12.10
2017-08-31T21:31:53.322Z,12.10
2017-08-31T21:34:20.884Z,12.00
2017-08-31T21:36:48.507Z,12.00
2017-08-31T21:39:16.104Z,12.10
2017-08-31T21:41:43.707Z,12.10
2017-08-31T21:44:11.284Z,12.00
2017-08-31T21:46:38.864Z,12.00
2017-08-31T21:49:06.469Z,11.90
2017-08-31T21:51:34.040Z,11.90
2017-08-31T21:54:01.666Z,11.80
2017-08-31T21:56:29.277Z,11.80
2017-08-31T21:58:56.865Z,11.70
2017-08-31T22:01:24.493Z,11.70
2017-08-31T22:03:52.084Z,11.70
2017-08-31T22:06:19.703Z,11.60
2017-08-31T22:08:47.283Z,11.60
2017-08-31T22:11:14.848Z,11.70
2017-08-31T22:13:42.466Z,11.60
2017-08-31T22:16:10.044Z,11.60
2017-08-31T22:18:37.672Z,11.50
2017-08-31T22:21:05.237Z,11.50
2017-08-31T22:23:32.828Z,11.50
2017-08-31T22:26:00.449Z,11.60
2017-08-31T22:28:28.049Z,11.60
2017-08-31T22:30:55.685Z,11.70
2017-08-31T22:33:23.294Z,11.60
2017-08-31T22:35:50.890Z,11.50
2017-08-31T22:38:18.491Z,11.40
2017-08-31T22:40:46.071Z,11.40
2017-08-31T22:43:13.676Z,11.30
2017-08-31T22:45:41.252Z,11.30
2017-08-31T22:48:08.839Z,11.20
2017-08-31T22:50:36.429Z,11.20
2017-08-31T22:53:04.017Z,11.20
2017-08-31T22:55:31.612Z,11.20
2017-08-31T22:58:11.056Z,11.10
2017-08-31T23:00:38.667Z,11.10
2017-08-31T23:03:06.262Z,11.10
2017-08-31T23:05:33.875Z,11.20
2017-08-31T23:08:01.452Z,11.20
2017-08-31T23:10:29.018Z,11.10
2017-08-31T23:12:56.629Z,11.10
2017-08-31T23:15:24.210Z,11.10
2017-08-31T23:17:51.819Z,11.10
2017-08-31T23:20:19.421Z,11.00
2017-08-31T23:22:46.995Z,11.00
2017-08-31T23:25:14.624Z,10.90
2017-08-31T23:27:42.212Z,10.90
2017-08-31T23:30:09.924Z,10.90
2017-08-31T23:32:37.544Z,10.90
2017-08-31T23:35:05.113Z,10.90
2017-08-31T23:37:32.714Z,10.90
2017-08-31T23:40:00.303Z,10.90
2017-08-31T23:42:27.915Z,10.90
2017-08-31T23:44:55.509Z,10.80
2017-08-31T23:47:23.068Z,10.80
2017-08-31T23:49:50.667Z,10.70
2017-08-31T23:52:18.275Z,10.70
2017-08-31T23:54:45.930Z,10.70
2017-08-31T23:57:13.536Z,10.60
2017-08-31T23:59:41.104Z,10.60
